• Join FlightAware (Why Join?)
  • Login
  • US Flag 
03:30PM EST


 

Airport Tracker/Info


-or-


 

Live Flight TrackerFlight Track Log ✈ AAL2360 ✈ 24-Apr-2013 ✈ KDFW - KORD

Flight Track Log - Related Links

Times and Time Zones

All times are in EDT time to prevent confusion due to time zone crossing. See the AAL2360 flight status page for this flight to view local times or setup timezone preferences in your user account.

Time Position Orientation Groundspeed Altitude Reporting Facility
EDT Latitude Longitude Course Direction KTS MPH feet Rate Location/Type
04:51PM 32.9167 -97.0333 357° North 156 180 2,000  Level Dallas / Fort Worth TRACON
04:52PM 32.9667 -97.0333 360° North 217 250 3,800 2,280 Climbing Dallas / Fort Worth TRACON
04:53PM 32.8772 -96.8000 North  Level FlightAware Approximate
04:54PM 33.0046 -96.8000 North  Level FlightAware Approximate
04:54PM 33.1125 -97.0092 North 256 295 9,200  Level Fort Worth Center
04:55PM 33.1319 -96.8046 357° North  Level FlightAware Approximate
04:55PM 33.2061 -96.9592 24° Northeast 308 354 10,700  Level Fort Worth Center
04:56PM 33.2590 -96.8137 357° North  Level FlightAware Approximate
04:56PM 33.3061 -96.9014 26° Northeast 376 433 14,100  Level Fort Worth Center
04:57PM 33.3936 -96.8561 23° Northeast 383 441 16,900 2,040 Climbing Fort Worth Center
04:58PM 33.5039 -96.7906 26° Northeast 388 447 18,200 1,500 Climbing Fort Worth Center
04:59PM 33.6017 -96.7275 28° Northeast 417 480 19,900 1,920 Climbing Fort Worth Center
05:00PM 33.7203 -96.6517 28° Northeast 429 494 22,100 1,800 Climbing Fort Worth Center
05:01PM 33.8200 -96.5858 29° Northeast 442 509 23,500 1,560 Climbing Fort Worth Center
05:02PM 33.9489 -96.5044 28° Northeast 463 533 25,300 1,620 Climbing Fort Worth Center
05:03PM 34.0672 -96.4281 28° Northeast 472 543 26,800 840 Climbing Fort Worth Center
05:04PM 34.1647 -96.3467 35° Northeast 472 543 27,000 60 Climbing Fort Worth Center
05:05PM 34.2767 -96.2547 34° Northeast 478 550 27,000 840 Level Fort Worth Center
05:06PM 34.3925 -96.1603 34° Northeast 491 565 28,700 1,380 Climbing Fort Worth Center
05:07PM 34.5042 -96.0653 35° Northeast 491 565 29,800 1,020 Climbing Fort Worth Center
05:08PM 34.6219 -95.9700 34° Northeast 491 565 30,800 600 Climbing Fort Worth Center
05:09PM 34.7378 -95.8722 35° Northeast 491 565 31,000 60 Climbing Fort Worth Center
05:11PM 34.9472 -95.6950 35° Northeast 482 555 31,000  Level Memphis Center
05:12PM 35.0581 -95.5903 38° Northeast 494 568 31,000  Level Memphis Center
05:13PM 35.1689 -95.4881 37° Northeast 499 574 31,000  Level Memphis Center
05:14PM 35.2794 -95.3828 38° Northeast 506 582 31,000  Level Memphis Center
05:15PM 35.3881 -95.2775 38° Northeast 506 582 31,000  Level Memphis Center
05:16PM 35.4986 -95.1717 38° Northeast 506 582 31,000  Level Memphis Center
05:17PM 35.6067 -95.0681 38° Northeast 506 582 31,000  Level Memphis Center
05:18PM 35.7172 -94.9594 39° Northeast 506 582 31,000  Level Memphis Center
05:19PM 35.8253 -94.8553 38° Northeast 501 577 31,000 -60 Level Memphis Center
05:20PM 35.9333 -94.7511 38° Northeast 501 577 30,900 -60 Descending Memphis Center
05:21PM 36.0411 -94.6439 39° Northeast 501 577 30,900  Level Memphis Center
05:22PM 36.1489 -94.5389 38° Northeast 501 577 30,900 600 Level Memphis Center
05:23PM 36.3494 -94.3417 38° Northeast 500 575 32,600 720 Climbing Kansas City Center
05:24PM 36.4578 -94.2347 38° Northeast 501 577 33,000 180 Climbing Kansas City Center
05:25PM 36.5678 -94.1261 38° Northeast 503 579 33,000 120 Level Kansas City Center
05:27PM 36.6764 -94.0178 39° Northeast 503 579 33,300 540 Climbing Kansas City Center
05:28PM 36.7867 -93.9100 38° Northeast 501 577 34,200 720 Climbing Kansas City Center
05:29PM 36.8947 -93.8003 39° Northeast 502 578 34,800 360 Climbing Kansas City Center
05:30PM 37.0225 -93.6714 39° Northeast 500 575 35,000 60 Climbing Kansas City Center
05:31PM 37.1303 -93.5597 40° Northeast 502 578 35,000  Level Kansas City Center
05:32PM 37.2411 -93.4514 38° Northeast 502 578 35,000  Level Kansas City Center
05:33PM 37.3511 -93.3411 39° Northeast 503 579 35,000 -60 Level Kansas City Center
05:34PM 37.4608 -93.2364 37° Northeast 497 572 34,900  Descending Kansas City Center
05:35PM 37.5742 -93.1339 36° Northeast 497 572 35,000  Climbing Kansas City Center
05:36PM 37.6878 -93.0294 36° Northeast 501 577 35,000  Level Kansas City Center
05:37PM 37.8233 -92.9025 36° Northeast 501 577 35,000  Level Kansas City Center
05:38PM 37.9367 -92.7958 37° Northeast 502 578 35,000  Level Kansas City Center
05:39PM 38.0350 -92.7028 37° Northeast 502 578 35,100  Climbing Kansas City Center
05:40PM 38.1700 -92.5764 36° Northeast 502 578 35,000 -60 Descending Kansas City Center
05:41PM 38.2794 -92.4725 37° Northeast 503 579 35,000  Level Kansas City Center
05:42PM 38.3925 -92.3639 37° Northeast 502 578 35,000 -60 Level Kansas City Center
05:43PM 38.5056 -92.2558 37° Northeast 503 579 34,900  Descending Kansas City Center
05:44PM 38.6186 -92.1489 36° Northeast 502 578 35,000  Climbing Kansas City Center
05:45PM 38.7317 -92.0400 37° Northeast 504 580 34,900  Descending Kansas City Center
05:46PM 38.8686 -91.9067 37° Northeast 508 585 35,000 60 Climbing Kansas City Center
05:47PM 38.9756 -91.7775 43° Northeast 518 596 35,100  Climbing Kansas City Center
05:48PM 39.0708 -91.6244 51° Northeast 540 621 35,100 -60 Level Kansas City Center
05:49PM 39.1756 -91.4894 45° Northeast 536 617 35,000 -60 Descending Kansas City Center
05:50PM 39.2978 -91.4478 15° North 477 549 35,000 -60 Level Kansas City Center
05:51PM 39.4092 -91.4656 353° North 414 476 34,900 -300 Descending Kansas City Center
05:52PM 39.5292 -91.3972 24° Northeast 456 525 34,400 -960 Descending Kansas City Center
05:53PM 39.6592 -91.2553 40° Northeast 492 566 33,000 -720 Descending Kansas City Center
05:54PM 39.7667 -91.1389 40° Northeast 508 585 33,000  Level Kansas City Center
05:55PM 39.8742 -91.0225 40° Northeast 509 586 33,000  Level Kansas City Center
05:57PM 39.9964 -90.8886 40° Northeast 508 585 33,000 -60 Level Kansas City Center
05:58PM 40.1036 -90.7725 40° Northeast 504 580 32,900  Descending Kansas City Center
05:58PM 40.1922 -90.6736 40° Northeast 501 577 33,000  Climbing Chicago Center
05:59PM 40.2950 -90.5619 40° Northeast 499 574 33,000 -60 Level Chicago Center
06:01PM 40.4217 -90.4214 40° Northeast 497 572 32,900 -480 Descending Chicago Center
06:02PM 40.5281 -90.3036 40° Northeast 497 572 32,000 -1,020 Descending Chicago Center
06:03PM 40.6247 -90.1944 41° Northeast 491 565 30,800 -1,500 Descending Chicago Center
06:04PM 40.7461 -90.0586 40° Northeast 478 550 29,000 -1,500 Descending Chicago Center
06:05PM 40.8439 -89.9486 40° Northeast 465 535 27,800 -1,260 Descending Chicago Center
06:06PM 40.9375 -89.8417 41° Northeast 448 516 26,500 -1,260 Descending Chicago Center
06:07PM 41.0292 -89.7375 41° Northeast 460 529 25,200 -1,560 Descending Chicago Center
06:08PM 41.1267 -89.6256 41° Northeast 463 533 23,300 -2,280 Descending Chicago Center
06:09PM 41.2111 -89.4633 55° Northeast 448 516 20,600 -2,460 Descending Chicago Center
06:10PM 41.2675 -89.3236 62° Northeast 432 497 18,300 -2,160 Descending Chicago Center
06:11PM 41.3222 -89.1872 62° Northeast 410 472 16,200 -2,040 Descending Chicago Center
06:12PM 41.3728 -89.0581 62° Northeast 398 458 14,100 -1,800 Descending Chicago Center
06:13PM 41.4211 -88.9361 62° Northeast 382 440 12,500 -1,440 Descending Chicago Center
06:14PM 41.4689 -88.8156 62° Northeast 371 427 11,200 -780 Descending Chicago Center
06:15PM 41.5253 -88.6711 62° Northeast 367 422 11,000 -120 Descending Chicago Center
06:16PM 41.5733 -88.5522 62° Northeast 365 420 11,000  Level Chicago Center
06:17PM 41.6244 -88.4353 60° Northeast 365 420 11,000  Level Chicago Center
06:18PM 41.6883 -88.3294 51° Northeast 363 418 11,000 -300 Level Chicago Center
06:19PM 41.7503 -88.2217 52° Northeast 365 420 10,500 -660 Descending Chicago Center
06:20PM 41.8042 -88.1294 52° Northeast 320 368 9,700 -1,080 Descending Chicago Center
06:21PM 41.8533 -88.0456 52° Northeast 294 338 8,300 -1,620 Descending Chicago Center
06:22PM 41.8833 -87.9833 57° Northeast 278 320 7,300 -900 Descending Chicago TRACON
06:23PM 41.8833 -87.8833 90° East 276 318 7,000 -300 Descending Chicago TRACON
06:24PM 41.8833 -87.8000 90° East 238 274 6,700 -900 Descending Chicago TRACON
06:25PM 41.8833 -87.7167 90° East 237 273 5,200 -1,200 Descending Chicago TRACON
06:26PM 41.9167 -87.6500 56° Northeast 234 269 4,200 -840 Descending Chicago TRACON
06:27PM 41.9500 -87.6833 323° Northwest 197 227 3,600 -660 Descending Chicago TRACON